sensor_id;sensor_type;location;lat;lon;timestamp;temperature;humidity
4433;DHT22;2229;48.708;9.706;2023-05-07T00:00:45;14.40;93.30
4433;DHT22;2229;48.708;9.706;2023-05-07T00:03:14;14.30;93.40
4433;DHT22;2229;48.708;9.706;2023-05-07T00:05:42;14.30;93.50
4433;DHT22;2229;48.708;9.706;2023-05-07T00:08:09;14.30;93.90
4433;DHT22;2229;48.708;9.706;2023-05-07T00:10:37;14.30;93.60
4433;DHT22;2229;48.708;9.706;2023-05-07T00:13:04;14.30;93.70
4433;DHT22;2229;48.708;9.706;2023-05-07T00:15:32;14.20;93.80
4433;DHT22;2229;48.708;9.706;2023-05-07T00:17:59;14.20;93.80
4433;DHT22;2229;48.708;9.706;2023-05-07T00:20:27;14.20;93.90
4433;DHT22;2229;48.708;9.706;2023-05-07T00:22:54;14.20;93.90
4433;DHT22;2229;48.708;9.706;2023-05-07T00:25:21;14.20;93.90
4433;DHT22;2229;48.708;9.706;2023-05-07T00:27:49;14.20;94.00
4433;DHT22;2229;48.708;9.706;2023-05-07T00:30:16;14.10;94.00
4433;DHT22;2229;48.708;9.706;2023-05-07T00:32:43;14.10;94.10
4433;DHT22;2229;48.708;9.706;2023-05-07T00:35:11;14.10;94.10
4433;DHT22;2229;48.708;9.706;2023-05-07T00:37:39;14.10;94.20
4433;DHT22;2229;48.708;9.706;2023-05-07T00:40:07;14.10;94.20
4433;DHT22;2229;48.708;9.706;2023-05-07T00:42:35;14.10;94.20
4433;DHT22;2229;48.708;9.706;2023-05-07T00:45:03;14.10;94.20
4433;DHT22;2229;48.708;9.706;2023-05-07T00:47:31;14.10;94.20
4433;DHT22;2229;48.708;9.706;2023-05-07T00:49:59;14.10;94.30
4433;DHT22;2229;48.708;9.706;2023-05-07T00:52:26;14.10;94.30
4433;DHT22;2229;48.708;9.706;2023-05-07T00:54:56;14.10;94.30
4433;DHT22;2229;48.708;9.706;2023-05-07T00:57:24;14.20;94.30
4433;DHT22;2229;48.708;9.706;2023-05-07T00:59:52;14.10;94.30
4433;DHT22;2229;48.708;9.706;2023-05-07T01:02:19;14.20;94.30
4433;DHT22;2229;48.708;9.706;2023-05-07T01:04:46;14.20;94.30
4433;DHT22;2229;48.708;9.706;2023-05-07T01:07:14;14.20;94.30
4433;DHT22;2229;48.708;9.706;2023-05-07T01:09:42;14.30;94.30
4433;DHT22;2229;48.708;9.706;2023-05-07T01:12:10;14.30;94.30
4433;DHT22;2229;48.708;9.706;2023-05-07T01:14:38;14.30;94.30
4433;DHT22;2229;48.708;9.706;2023-05-07T01:17:05;14.20;94.30
4433;DHT22;2229;48.708;9.706;2023-05-07T01:19:32;14.30;94.30
4433;DHT22;2229;48.708;9.706;2023-05-07T01:22:07;14.20;94.30
4433;DHT22;2229;48.708;9.706;2023-05-07T01:24:45;14.20;94.40
4433;DHT22;2229;48.708;9.706;2023-05-07T01:27:15;14.10;94.40
4433;DHT22;2229;48.708;9.706;2023-05-07T01:29:43;14.10;94.40
4433;DHT22;2229;48.708;9.706;2023-05-07T01:32:11;14.10;94.50
4433;DHT22;2229;48.708;9.706;2023-05-07T01:34:42;14.10;94.60
4433;DHT22;2229;48.708;9.706;2023-05-07T01:37:11;14.00;94.60
4433;DHT22;2229;48.708;9.706;2023-05-07T01:39:40;14.00;94.60
4433;DHT22;2229;48.708;9.706;2023-05-07T01:42:08;13.90;94.70
4433;DHT22;2229;48.708;9.706;2023-05-07T01:44:35;13.90;94.70
4433;DHT22;2229;48.708;9.706;2023-05-07T01:47:03;13.90;94.80
4433;DHT22;2229;48.708;9.706;2023-05-07T01:49:31;13.80;94.70
4433;DHT22;2229;48.708;9.706;2023-05-07T01:51:59;13.80;94.80
4433;DHT22;2229;48.708;9.706;2023-05-07T01:54:26;13.80;94.80
4433;DHT22;2229;48.708;9.706;2023-05-07T01:56:57;13.80;94.90
4433;DHT22;2229;48.708;9.706;2023-05-07T01:59:26;13.70;94.90
4433;DHT22;2229;48.708;9.706;2023-05-07T02:01:53;13.80;94.90
4433;DHT22;2229;48.708;9.706;2023-05-07T02:04:20;13.70;95.00
4433;DHT22;2229;48.708;9.706;2023-05-07T02:06:48;13.70;95.10
4433;DHT22;2229;48.708;9.706;2023-05-07T02:09:15;13.70;95.10
4433;DHT22;2229;48.708;9.706;2023-05-07T02:11:45;13.60;95.20
4433;DHT22;2229;48.708;9.706;2023-05-07T02:14:12;13.60;95.30
4433;DHT22;2229;48.708;9.706;2023-05-07T02:16:41;13.60;95.30
4433;DHT22;2229;48.708;9.706;2023-05-07T02:19:11;13.60;95.30
4433;DHT22;2229;48.708;9.706;2023-05-07T02:21:38;13.60;95.40
4433;DHT22;2229;48.708;9.706;2023-05-07T02:24:06;13.60;95.40
4433;DHT22;2229;48.708;9.706;2023-05-07T02:26:34;13.60;95.40
4433;DHT22;2229;48.708;9.706;2023-05-07T02:29:01;13.60;95.50
4433;DHT22;2229;48.708;9.706;2023-05-07T02:31:28;13.60;95.60
4433;DHT22;2229;48.708;9.706;2023-05-07T02:33:57;13.50;95.60
4433;DHT22;2229;48.708;9.706;2023-05-07T02:36:27;13.50;95.60
4433;DHT22;2229;48.708;9.706;2023-05-07T02:39:01;13.50;95.70
4433;DHT22;2229;48.708;9.706;2023-05-07T02:41:29;13.40;95.70
4433;DHT22;2229;48.708;9.706;2023-05-07T02:43:56;13.40;96.00
4433;DHT22;2229;48.708;9.706;2023-05-07T02:46:27;13.40;95.70
4433;DHT22;2229;48.708;9.706;2023-05-07T02:49:02;13.40;95.80
4433;DHT22;2229;48.708;9.706;2023-05-07T02:51:30;13.40;95.80
4433;DHT22;2229;48.708;9.706;2023-05-07T02:54:00;13.30;95.80
4433;DHT22;2229;48.708;9.706;2023-05-07T02:56:28;13.30;95.90
4433;DHT22;2229;48.708;9.706;2023-05-07T02:58:56;13.30;95.90
4433;DHT22;2229;48.708;9.706;2023-05-07T03:01:27;13.20;95.90
4433;DHT22;2229;48.708;9.706;2023-05-07T03:04:01;13.20;96.00
4433;DHT22;2229;48.708;9.706;2023-05-07T03:06:28;13.20;96.00
4433;DHT22;2229;48.708;9.706;2023-05-07T03:08:56;13.30;96.10
4433;DHT22;2229;48.708;9.706;2023-05-07T03:11:23;13.30;96.10
4433;DHT22;2229;48.708;9.706;2023-05-07T03:13:54;13.30;96.10
4433;DHT22;2229;48.708;9.706;2023-05-07T03:16:22;13.30;96.00
4433;DHT22;2229;48.708;9.706;2023-05-07T03:18:49;13.30;96.00
4433;DHT22;2229;48.708;9.706;2023-05-07T03:21:17;13.30;95.90
4433;DHT22;2229;48.708;9.706;2023-05-07T03:23:45;13.20;95.80
4433;DHT22;2229;48.708;9.706;2023-05-07T03:26:12;13.20;96.10
4433;DHT22;2229;48.708;9.706;2023-05-07T03:28:44;13.10;95.80
4433;DHT22;2229;48.708;9.706;2023-05-07T03:31:13;13.10;95.80
4433;DHT22;2229;48.708;9.706;2023-05-07T03:33:50;13.00;95.80
4433;DHT22;2229;48.708;9.706;2023-05-07T03:36:19;13.00;95.90
4433;DHT22;2229;48.708;9.706;2023-05-07T03:38:47;13.00;96.00
4433;DHT22;2229;48.708;9.706;2023-05-07T03:41:18;12.90;95.90
4433;DHT22;2229;48.708;9.706;2023-05-07T03:43:46;12.90;96.00
4433;DHT22;2229;48.708;9.706;2023-05-07T03:46:13;12.80;96.00
4433;DHT22;2229;48.708;9.706;2023-05-07T03:48:42;12.80;96.10
4433;DHT22;2229;48.708;9.706;2023-05-07T03:51:11;12.80;96.10
4433;DHT22;2229;48.708;9.706;2023-05-07T03:53:39;12.80;96.20
4433;DHT22;2229;48.708;9.706;2023-05-07T03:56:06;12.80;96.20
4433;DHT22;2229;48.708;9.706;2023-05-07T03:58:37;12.80;96.30
4433;DHT22;2229;48.708;9.706;2023-05-07T04:01:07;12.90;96.30
4433;DHT22;2229;48.708;9.706;2023-05-07T04:03:35;12.90;96.30
4433;DHT22;2229;48.708;9.706;2023-05-07T04:06:03;12.80;96.30
4433;DHT22;2229;48.708;9.706;2023-05-07T04:08:33;12.80;96.30
4433;DHT22;2229;48.708;9.706;2023-05-07T04:11:02;12.80;96.30
4433;DHT22;2229;48.708;9.706;2023-05-07T04:13:31;12.70;96.40
4433;DHT22;2229;48.708;9.706;2023-05-07T04:16:01;12.70;96.40
4433;DHT22;2229;48.708;9.706;2023-05-07T04:18:29;12.70;96.60
4433;DHT22;2229;48.708;9.706;2023-05-07T04:20:56;12.70;96.60
4433;DHT22;2229;48.708;9.706;2023-05-07T04:23:23;12.70;96.70
4433;DHT22;2229;48.708;9.706;2023-05-07T04:25:51;12.70;96.70
4433;DHT22;2229;48.708;9.706;2023-05-07T04:28:30;12.70;96.70
4433;DHT22;2229;48.708;9.706;2023-05-07T04:30:57;12.80;96.70
4433;DHT22;2229;48.708;9.706;2023-05-07T04:33:25;12.80;96.80
4433;DHT22;2229;48.708;9.706;2023-05-07T04:35:54;12.80;96.80
4433;DHT22;2229;48.708;9.706;2023-05-07T04:38:21;12.90;96.90
4433;DHT22;2229;48.708;9.706;2023-05-07T04:40:50;12.90;97.00
4433;DHT22;2229;48.708;9.706;2023-05-07T04:43:21;12.90;97.00
4433;DHT22;2229;48.708;9.706;2023-05-07T04:45:53;12.80;96.90
4433;DHT22;2229;48.708;9.706;2023-05-07T04:48:23;13.00;96.90
4433;DHT22;2229;48.708;9.706;2023-05-07T04:50:52;13.00;96.90
4433;DHT22;2229;48.708;9.706;2023-05-07T04:53:20;13.00;96.90
4433;DHT22;2229;48.708;9.706;2023-05-07T04:55:55;13.10;96.90
4433;DHT22;2229;48.708;9.706;2023-05-07T04:58:23;13.10;96.80
4433;DHT22;2229;48.708;9.706;2023-05-07T05:00:50;13.20;96.80
4433;DHT22;2229;48.708;9.706;2023-05-07T05:03:19;13.30;96.70
4433;DHT22;2229;48.708;9.706;2023-05-07T05:05:46;13.30;96.70
4433;DHT22;2229;48.708;9.706;2023-05-07T05:08:13;13.40;96.80
4433;DHT22;2229;48.708;9.706;2023-05-07T05:10:42;13.40;96.80
4433;DHT22;2229;48.708;9.706;2023-05-07T05:13:10;13.40;96.80
4433;DHT22;2229;48.708;9.706;2023-05-07T05:15:38;13.40;96.80
4433;DHT22;2229;48.708;9.706;2023-05-07T05:18:05;13.50;96.70
4433;DHT22;2229;48.708;9.706;2023-05-07T05:20:34;13.60;96.80
4433;DHT22;2229;48.708;9.706;2023-05-07T05:23:01;13.70;96.80
4433;DHT22;2229;48.708;9.706;2023-05-07T05:25:30;13.70;96.80
4433;DHT22;2229;48.708;9.706;2023-05-07T05:27:58;13.80;96.90
4433;DHT22;2229;48.708;9.706;2023-05-07T05:30:26;13.80;96.90
4433;DHT22;2229;48.708;9.706;2023-05-07T05:32:53;13.80;97.20
4433;DHT22;2229;48.708;9.706;2023-05-07T05:35:20;13.80;96.90
4433;DHT22;2229;48.708;9.706;2023-05-07T05:37:49;13.90;97.10
4433;DHT22;2229;48.708;9.706;2023-05-07T05:40:18;13.90;97.20
4433;DHT22;2229;48.708;9.706;2023-05-07T05:42:46;14.00;97.30
4433;DHT22;2229;48.708;9.706;2023-05-07T05:45:15;14.10;97.40
4433;DHT22;2229;48.708;9.706;2023-05-07T05:47:44;14.20;97.60
4433;DHT22;2229;48.708;9.706;2023-05-07T05:50:12;14.40;97.70
4433;DHT22;2229;48.708;9.706;2023-05-07T05:52:40;14.50;97.70
4433;DHT22;2229;48.708;9.706;2023-05-07T05:55:11;14.60;97.80
4433;DHT22;2229;48.708;9.706;2023-05-07T05:57:38;14.80;97.80
4433;DHT22;2229;48.708;9.706;2023-05-07T06:00:07;14.90;97.40
4433;DHT22;2229;48.708;9.706;2023-05-07T06:02:44;15.10;97.20
4433;DHT22;2229;48.708;9.706;2023-05-07T06:05:16;15.30;96.60
4433;DHT22;2229;48.708;9.706;2023-05-07T06:07:43;15.40;95.80
4433;DHT22;2229;48.708;9.706;2023-05-07T06:10:12;15.60;95.10
4433;DHT22;2229;48.708;9.706;2023-05-07T06:12:40;15.80;95.00
4433;DHT22;2229;48.708;9.706;2023-05-07T06:15:08;15.90;94.80
4433;DHT22;2229;48.708;9.706;2023-05-07T06:17:35;16.00;94.70
4433;DHT22;2229;48.708;9.706;2023-05-07T06:20:03;16.10;94.50
4433;DHT22;2229;48.708;9.706;2023-05-07T06:22:31;16.20;94.30
4433;DHT22;2229;48.708;9.706;2023-05-07T06:24:58;16.30;94.30
4433;DHT22;2229;48.708;9.706;2023-05-07T06:27:27;16.40;94.30
4433;DHT22;2229;48.708;9.706;2023-05-07T06:29:55;16.60;94.20
4433;DHT22;2229;48.708;9.706;2023-05-07T06:32:22;16.70;94.00
4433;DHT22;2229;48.708;9.706;2023-05-07T06:34:51;16.90;94.20
4433;DHT22;2229;48.708;9.706;2023-05-07T06:37:19;17.10;93.90
4433;DHT22;2229;48.708;9.706;2023-05-07T06:40:03;17.30;93.50
4433;DHT22;2229;48.708;9.706;2023-05-07T06:42:33;17.50;93.10
4433;DHT22;2229;48.708;9.706;2023-05-07T06:45:19;17.60;93.10
4433;DHT22;2229;48.708;9.706;2023-05-07T06:47:46;17.90;92.90
4433;DHT22;2229;48.708;9.706;2023-05-07T06:50:14;18.00;91.90
4433;DHT22;2229;48.708;9.706;2023-05-07T06:52:43;18.20;91.70
4433;DHT22;2229;48.708;9.706;2023-05-07T06:55:10;18.40;91.30
4433;DHT22;2229;48.708;9.706;2023-05-07T06:57:39;18.60;90.90
4433;DHT22;2229;48.708;9.706;2023-05-07T07:00:08;18.80;90.50
4433;DHT22;2229;48.708;9.706;2023-05-07T07:02:43;18.90;89.30
4433;DHT22;2229;48.708;9.706;2023-05-07T07:05:11;19.00;89.10
4433;DHT22;2229;48.708;9.706;2023-05-07T07:07:38;19.00;88.80
4433;DHT22;2229;48.708;9.706;2023-05-07T07:10:07;19.20;89.00
4433;DHT22;2229;48.708;9.706;2023-05-07T07:12:35;19.30;88.60
4433;DHT22;2229;48.708;9.706;2023-05-07T07:15:05;19.40;87.00
4433;DHT22;2229;48.708;9.706;2023-05-07T07:17:33;19.60;87.40
4433;DHT22;2229;48.708;9.706;2023-05-07T07:20:02;19.80;87.00
4433;DHT22;2229;48.708;9.706;2023-05-07T07:22:29;20.00;85.70
4433;DHT22;2229;48.708;9.706;2023-05-07T07:24:57;20.10;85.20
4433;DHT22;2229;48.708;9.706;2023-05-07T07:27:24;20.20;84.20
4433;DHT22;2229;48.708;9.706;2023-05-07T07:29:51;20.30;84.50
4433;DHT22;2229;48.708;9.706;2023-05-07T07:32:20;20.40;85.90
4433;DHT22;2229;48.708;9.706;2023-05-07T07:34:48;20.40;85.00
4433;DHT22;2229;48.708;9.706;2023-05-07T07:37:15;20.50;84.20
4433;DHT22;2229;48.708;9.706;2023-05-07T07:39:43;20.70;83.50
4433;DHT22;2229;48.708;9.706;2023-05-07T07:42:11;21.00;83.40
4433;DHT22;2229;48.708;9.706;2023-05-07T07:44:38;21.10;81.90
4433;DHT22;2229;48.708;9.706;2023-05-07T07:47:08;21.40;81.70
4433;DHT22;2229;48.708;9.706;2023-05-07T07:49:37;21.70;81.90
4433;DHT22;2229;48.708;9.706;2023-05-07T07:52:06;21.90;81.50
4433;DHT22;2229;48.708;9.706;2023-05-07T07:54:35;22.20;81.00
4433;DHT22;2229;48.708;9.706;2023-05-07T07:57:05;22.50;79.30
4433;DHT22;2229;48.708;9.706;2023-05-07T07:59:34;22.60;77.90
4433;DHT22;2229;48.708;9.706;2023-05-07T08:02:01;22.80;79.00
4433;DHT22;2229;48.708;9.706;2023-05-07T08:04:29;23.10;78.50
4433;DHT22;2229;48.708;9.706;2023-05-07T08:07:04;23.40;77.70
4433;DHT22;2229;48.708;9.706;2023-05-07T08:09:36;23.60;77.60
4433;DHT22;2229;48.708;9.706;2023-05-07T08:12:04;23.90;76.30
4433;DHT22;2229;48.708;9.706;2023-05-07T08:14:33;24.10;74.60
4433;DHT22;2229;48.708;9.706;2023-05-07T08:17:03;24.40;74.70
4433;DHT22;2229;48.708;9.706;2023-05-07T08:19:31;24.80;75.20
4433;DHT22;2229;48.708;9.706;2023-05-07T08:21:59;25.10;74.20
4433;DHT22;2229;48.708;9.706;2023-05-07T08:24:28;25.30;72.80
4433;DHT22;2229;48.708;9.706;2023-05-07T08:26:56;25.50;71.30
4433;DHT22;2229;48.708;9.706;2023-05-07T08:29:24;25.70;71.20
4433;DHT22;2229;48.708;9.706;2023-05-07T08:31:52;26.00;71.50
4433;DHT22;2229;48.708;9.706;2023-05-07T08:34:20;26.20;70.60
4433;DHT22;2229;48.708;9.706;2023-05-07T08:36:49;26.50;70.40
4433;DHT22;2229;48.708;9.706;2023-05-07T08:39:20;26.70;68.70
4433;DHT22;2229;48.708;9.706;2023-05-07T08:41:55;26.90;67.60
4433;DHT22;2229;48.708;9.706;2023-05-07T08:44:26;27.20;67.00
4433;DHT22;2229;48.708;9.706;2023-05-07T08:46:56;27.30;64.70
4433;DHT22;2229;48.708;9.706;2023-05-07T08:49:24;27.40;62.80
4433;DHT22;2229;48.708;9.706;2023-05-07T08:51:52;27.50;62.80
4433;DHT22;2229;48.708;9.706;2023-05-07T08:54:21;27.60;60.50
4433;DHT22;2229;48.708;9.706;2023-05-07T08:56:50;27.70;60.40
4433;DHT22;2229;48.708;9.706;2023-05-07T08:59:20;27.80;59.60
4433;DHT22;2229;48.708;9.706;2023-05-07T09:01:47;27.90;58.40
4433;DHT22;2229;48.708;9.706;2023-05-07T09:04:16;28.10;59.20
4433;DHT22;2229;48.708;9.706;2023-05-07T09:06:44;28.40;58.80
4433;DHT22;2229;48.708;9.706;2023-05-07T09:09:14;28.60;57.40
4433;DHT22;2229;48.708;9.706;2023-05-07T09:11:45;28.80;56.20
4433;DHT22;2229;48.708;9.706;2023-05-07T09:14:15;28.90;54.90
4433;DHT22;2229;48.708;9.706;2023-05-07T09:16:46;29.10;54.10
4433;DHT22;2229;48.708;9.706;2023-05-07T09:19:13;29.30;54.50
4433;DHT22;2229;48.708;9.706;2023-05-07T09:21:45;29.50;55.10
4433;DHT22;2229;48.708;9.706;2023-05-07T09:24:15;29.70;52.90
4433;DHT22;2229;48.708;9.706;2023-05-07T09:26:43;30.00;52.50
4433;DHT22;2229;48.708;9.706;2023-05-07T09:29:15;30.30;52.50
4433;DHT22;2229;48.708;9.706;2023-05-07T09:31:43;30.50;51.40
4433;DHT22;2229;48.708;9.706;2023-05-07T09:34:13;30.70;51.40
4433;DHT22;2229;48.708;9.706;2023-05-07T09:36:44;30.90;50.10
4433;DHT22;2229;48.708;9.706;2023-05-07T09:39:13;30.90;50.60
4433;DHT22;2229;48.708;9.706;2023-05-07T09:41:44;30.70;50.40
4433;DHT22;2229;48.708;9.706;2023-05-07T09:44:31;30.40;50.80
4433;DHT22;2229;48.708;9.706;2023-05-07T09:47:00;30.00;50.20
4433;DHT22;2229;48.708;9.706;2023-05-07T09:49:35;29.50;49.60
4433;DHT22;2229;48.708;9.706;2023-05-07T09:52:06;29.00;50.50
4433;DHT22;2229;48.708;9.706;2023-05-07T09:54:39;28.70;52.00
4433;DHT22;2229;48.708;9.706;2023-05-07T09:57:10;28.60;53.10
4433;DHT22;2229;48.708;9.706;2023-05-07T09:59:43;28.50;52.90
4433;DHT22;2229;48.708;9.706;2023-05-07T10:02:14;28.40;52.20
4433;DHT22;2229;48.708;9.706;2023-05-07T10:04:48;28.30;52.70
4433;DHT22;2229;48.708;9.706;2023-05-07T10:07:21;28.30;53.50
4433;DHT22;2229;48.708;9.706;2023-05-07T10:09:52;28.30;53.50
4433;DHT22;2229;48.708;9.706;2023-05-07T10:12:29;28.10;52.60
4433;DHT22;2229;48.708;9.706;2023-05-07T10:15:07;27.90;52.40
4433;DHT22;2229;48.708;9.706;2023-05-07T10:17:35;27.80;53.20
4433;DHT22;2229;48.708;9.706;2023-05-07T10:20:04;27.70;53.70
4433;DHT22;2229;48.708;9.706;2023-05-07T10:22:36;27.70;53.70
4433;DHT22;2229;48.708;9.706;2023-05-07T10:25:08;27.80;53.90
4433;DHT22;2229;48.708;9.706;2023-05-07T10:27:42;27.70;53.40
4433;DHT22;2229;48.708;9.706;2023-05-07T10:30:21;27.70;53.40
4433;DHT22;2229;48.708;9.706;2023-05-07T10:32:56;27.70;53.30
4433;DHT22;2229;48.708;9.706;2023-05-07T10:35:37;27.70;53.60
4433;DHT22;2229;48.708;9.706;2023-05-07T10:38:05;27.70;53.30
4433;DHT22;2229;48.708;9.706;2023-05-07T10:40:35;27.70;53.40
4433;DHT22;2229;48.708;9.706;2023-05-07T10:43:04;27.80;53.90
4433;DHT22;2229;48.708;9.706;2023-05-07T10:45:39;27.80;55.40
4433;DHT22;2229;48.708;9.706;2023-05-07T10:48:09;27.90;54.20
4433;DHT22;2229;48.708;9.706;2023-05-07T10:50:38;28.00;54.40
4433;DHT22;2229;48.708;9.706;2023-05-07T10:53:24;28.10;54.00
4433;DHT22;2229;48.708;9.706;2023-05-07T10:56:24;28.20;54.00
4433;DHT22;2229;48.708;9.706;2023-05-07T10:59:30;28.30;53.70
4433;DHT22;2229;48.708;9.706;2023-05-07T11:02:05;28.20;53.00
4433;DHT22;2229;48.708;9.706;2023-05-07T11:05:18;28.00;53.00
4433;DHT22;2229;48.708;9.706;2023-05-07T11:07:54;28.00;53.20
4433;DHT22;2229;48.708;9.706;2023-05-07T11:10:23;28.00;52.80
4433;DHT22;2229;48.708;9.706;2023-05-07T11:13:00;28.20;53.70
4433;DHT22;2229;48.708;9.706;2023-05-07T11:15:41;28.30;53.80
4433;DHT22;2229;48.708;9.706;2023-05-07T11:18:48;28.40;53.70
4433;DHT22;2229;48.708;9.706;2023-05-07T11:21:34;28.50;53.40
4433;DHT22;2229;48.708;9.706;2023-05-07T11:24:39;28.70;53.20
4433;DHT22;2229;48.708;9.706;2023-05-07T11:27:06;28.90;52.80
4433;DHT22;2229;48.708;9.706;2023-05-07T11:29:34;29.00;52.40
4433;DHT22;2229;48.708;9.706;2023-05-07T11:32:12;29.10;52.30
4433;DHT22;2229;48.708;9.706;2023-05-07T11:34:53;29.20;52.10
4433;DHT22;2229;48.708;9.706;2023-05-07T11:37:22;29.30;51.40
4433;DHT22;2229;48.708;9.706;2023-05-07T11:40:03;29.20;51.00
4433;DHT22;2229;48.708;9.706;2023-05-07T11:42:32;29.30;51.20
4433;DHT22;2229;48.708;9.706;2023-05-07T11:45:00;29.20;50.80
4433;DHT22;2229;48.708;9.706;2023-05-07T11:47:30;29.20;51.00
4433;DHT22;2229;48.708;9.706;2023-05-07T11:50:04;29.30;51.90
4433;DHT22;2229;48.708;9.706;2023-05-07T11:52:32;29.20;52.40
4433;DHT22;2229;48.708;9.706;2023-05-07T11:55:00;29.20;52.30
4433;DHT22;2229;48.708;9.706;2023-05-07T11:57:29;29.10;52.00
4433;DHT22;2229;48.708;9.706;2023-05-07T11:59:57;29.00;52.00
4433;DHT22;2229;48.708;9.706;2023-05-07T12:02:25;28.90;52.90
4433;DHT22;2229;48.708;9.706;2023-05-07T12:04:54;28.80;54.00
4433;DHT22;2229;48.708;9.706;2023-05-07T12:07:24;28.70;54.00
4433;DHT22;2229;48.708;9.706;2023-05-07T12:09:52;28.70;53.80
4433;DHT22;2229;48.708;9.706;2023-05-07T12:12:20;28.60;53.00
4433;DHT22;2229;48.708;9.706;2023-05-07T12:14:48;28.50;53.40
4433;DHT22;2229;48.708;9.706;2023-05-07T12:17:16;28.30;53.80
4433;DHT22;2229;48.708;9.706;2023-05-07T12:19:44;28.10;54.20
4433;DHT22;2229;48.708;9.706;2023-05-07T12:22:12;27.90;54.50
4433;DHT22;2229;48.708;9.706;2023-05-07T12:24:48;27.60;53.20
4433;DHT22;2229;48.708;9.706;2023-05-07T12:27:16;27.30;54.00
4433;DHT22;2229;48.708;9.706;2023-05-07T12:29:46;27.10;54.40
4433;DHT22;2229;48.708;9.706;2023-05-07T12:32:17;27.00;55.30
4433;DHT22;2229;48.708;9.706;2023-05-07T12:34:44;26.90;54.90
4433;DHT22;2229;48.708;9.706;2023-05-07T12:37:12;26.80;56.00
4433;DHT22;2229;48.708;9.706;2023-05-07T12:39:44;26.70;56.90
4433;DHT22;2229;48.708;9.706;2023-05-07T12:42:16;26.60;55.80
4433;DHT22;2229;48.708;9.706;2023-05-07T12:44:46;26.50;55.50
4433;DHT22;2229;48.708;9.706;2023-05-07T12:47:14;26.30;55.10
4433;DHT22;2229;48.708;9.706;2023-05-07T12:49:42;26.20;55.00
4433;DHT22;2229;48.708;9.706;2023-05-07T12:52:12;26.10;55.00
4433;DHT22;2229;48.708;9.706;2023-05-07T12:54:39;25.90;54.30
4433;DHT22;2229;48.708;9.706;2023-05-07T12:57:07;25.90;55.00
4433;DHT22;2229;48.708;9.706;2023-05-07T12:59:38;25.80;55.70
4433;DHT22;2229;48.708;9.706;2023-05-07T13:02:06;25.80;56.40
4433;DHT22;2229;48.708;9.706;2023-05-07T13:04:35;25.80;56.50
4433;DHT22;2229;48.708;9.706;2023-05-07T13:07:02;25.80;57.00
4433;DHT22;2229;48.708;9.706;2023-05-07T13:09:31;25.80;56.80
4433;DHT22;2229;48.708;9.706;2023-05-07T13:11:58;25.60;56.00
4433;DHT22;2229;48.708;9.706;2023-05-07T13:14:27;25.60;55.40
4433;DHT22;2229;48.708;9.706;2023-05-07T13:16:56;25.50;55.70
4433;DHT22;2229;48.708;9.706;2023-05-07T13:19:23;25.40;56.60
4433;DHT22;2229;48.708;9.706;2023-05-07T13:21:51;25.40;56.30
4433;DHT22;2229;48.708;9.706;2023-05-07T13:24:18;25.30;56.10
4433;DHT22;2229;48.708;9.706;2023-05-07T13:26:45;25.20;56.10
4433;DHT22;2229;48.708;9.706;2023-05-07T13:29:12;25.10;56.30
4433;DHT22;2229;48.708;9.706;2023-05-07T13:31:40;25.00;56.60
4433;DHT22;2229;48.708;9.706;2023-05-07T13:34:10;24.90;57.40
4433;DHT22;2229;48.708;9.706;2023-05-07T13:36:37;24.80;57.80
4433;DHT22;2229;48.708;9.706;2023-05-07T13:39:05;24.80;58.40
4433;DHT22;2229;48.708;9.706;2023-05-07T13:41:32;24.70;58.40
4433;DHT22;2229;48.708;9.706;2023-05-07T13:44:00;24.70;59.10
4433;DHT22;2229;48.708;9.706;2023-05-07T13:46:27;24.60;61.00
4433;DHT22;2229;48.708;9.706;2023-05-07T13:48:55;24.40;62.90
4433;DHT22;2229;48.708;9.706;2023-05-07T13:51:24;24.20;64.80
4433;DHT22;2229;48.708;9.706;2023-05-07T13:53:51;24.00;65.90
4433;DHT22;2229;48.708;9.706;2023-05-07T13:56:20;23.80;67.60
4433;DHT22;2229;48.708;9.706;2023-05-07T13:58:47;23.60;69.30
4433;DHT22;2229;48.708;9.706;2023-05-07T14:01:16;23.40;70.30
4433;DHT22;2229;48.708;9.706;2023-05-07T14:03:43;23.20;71.20
4433;DHT22;2229;48.708;9.706;2023-05-07T14:06:10;23.10;71.90
4433;DHT22;2229;48.708;9.706;2023-05-07T14:08:39;23.00;72.70
4433;DHT22;2229;48.708;9.706;2023-05-07T14:11:06;22.90;72.80
4433;DHT22;2229;48.708;9.706;2023-05-07T14:13:33;22.80;72.60
4433;DHT22;2229;48.708;9.706;2023-05-07T14:16:01;22.70;73.60
4433;DHT22;2229;48.708;9.706;2023-05-07T14:18:28;22.70;74.30
4433;DHT22;2229;48.708;9.706;2023-05-07T14:20:55;22.60;75.10
4433;DHT22;2229;48.708;9.706;2023-05-07T14:23:23;22.60;76.30
4433;DHT22;2229;48.708;9.706;2023-05-07T14:25:53;22.40;75.00
4433;DHT22;2229;48.708;9.706;2023-05-07T14:28:22;22.30;75.00
4433;DHT22;2229;48.708;9.706;2023-05-07T14:30:49;22.10;73.30
4433;DHT22;2229;48.708;9.706;2023-05-07T14:33:17;21.80;74.50
4433;DHT22;2229;48.708;9.706;2023-05-07T14:35:44;21.40;76.00
4433;DHT22;2229;48.708;9.706;2023-05-07T14:38:14;21.10;77.40
4433;DHT22;2229;48.708;9.706;2023-05-07T14:40:42;20.70;79.00
4433;DHT22;2229;48.708;9.706;2023-05-07T14:43:15;20.30;79.90
4433;DHT22;2229;48.708;9.706;2023-05-07T14:45:43;20.00;80.60
4433;DHT22;2229;48.708;9.706;2023-05-07T14:48:10;19.70;81.50
4433;DHT22;2229;48.708;9.706;2023-05-07T14:50:40;19.50;82.50
4433;DHT22;2229;48.708;9.706;2023-05-07T14:53:07;19.40;83.10
4433;DHT22;2229;48.708;9.706;2023-05-07T14:55:35;19.20;83.60
4433;DHT22;2229;48.708;9.706;2023-05-07T14:58:03;19.10;83.70
4433;DHT22;2229;48.708;9.706;2023-05-07T15:00:33;19.00;84.30
4433;DHT22;2229;48.708;9.706;2023-05-07T15:03:06;18.90;84.90
4433;DHT22;2229;48.708;9.706;2023-05-07T15:05:34;18.80;85.10
4433;DHT22;2229;48.708;9.706;2023-05-07T15:08:01;18.70;85.20
4433;DHT22;2229;48.708;9.706;2023-05-07T15:10:28;18.70;85.70
4433;DHT22;2229;48.708;9.706;2023-05-07T15:12:56;18.60;86.20
4433;DHT22;2229;48.708;9.706;2023-05-07T15:15:23;18.50;86.80
4433;DHT22;2229;48.708;9.706;2023-05-07T15:17:52;18.50;87.60
4433;DHT22;2229;48.708;9.706;2023-05-07T15:20:19;18.40;88.20
4433;DHT22;2229;48.708;9.706;2023-05-07T15:22:47;18.30;88.90
4433;DHT22;2229;48.708;9.706;2023-05-07T15:25:14;18.20;90.00
4433;DHT22;2229;48.708;9.706;2023-05-07T15:27:41;18.10;90.20
4433;DHT22;2229;48.708;9.706;2023-05-07T15:30:09;18.00;90.60
4433;DHT22;2229;48.708;9.706;2023-05-07T15:32:37;17.90;91.00
4433;DHT22;2229;48.708;9.706;2023-05-07T15:35:06;17.90;91.60
4433;DHT22;2229;48.708;9.706;2023-05-07T15:37:34;17.80;91.60
4433;DHT22;2229;48.708;9.706;2023-05-07T15:40:01;17.80;91.90
4433;DHT22;2229;48.708;9.706;2023-05-07T15:42:30;17.70;92.30
4433;DHT22;2229;48.708;9.706;2023-05-07T15:44:58;17.70;92.80
4433;DHT22;2229;48.708;9.706;2023-05-07T15:47:26;17.70;93.10
4433;DHT22;2229;48.708;9.706;2023-05-07T15:49:53;17.70;93.30
4433;DHT22;2229;48.708;9.706;2023-05-07T15:52:22;17.70;93.70
4433;DHT22;2229;48.708;9.706;2023-05-07T15:54:49;17.60;93.80
4433;DHT22;2229;48.708;9.706;2023-05-07T15:57:17;17.70;94.10
4433;DHT22;2229;48.708;9.706;2023-05-07T15:59:44;17.70;94.20
4433;DHT22;2229;48.708;9.706;2023-05-07T16:02:11;17.70;94.30
4433;DHT22;2229;48.708;9.706;2023-05-07T16:04:38;17.70;94.60
4433;DHT22;2229;48.708;9.706;2023-05-07T16:07:05;17.70;94.70
4433;DHT22;2229;48.708;9.706;2023-05-07T16:09:34;17.70;94.80
4433;DHT22;2229;48.708;9.706;2023-05-07T16:12:02;17.70;95.00
4433;DHT22;2229;48.708;9.706;2023-05-07T16:14:30;17.70;95.20
4433;DHT22;2229;48.708;9.706;2023-05-07T16:16:57;17.70;95.30